Time;durP1;ratioP1;P1;durP2;ratioP2;P2;SDS_P1;SDS_P2;PMS_P1;PMS_P2;Temp;Humidity;BMP_temperature;BMP_pressure;BME280_temperature;BME280_humidity;BME280_pressure;Samples;Min_cycle;Max_cycle;Signal;HPM_P1;HPM_P2
2023/04/03 00:01:11;;;;;;;1.55;0.80;;;3.30;99.90;;;;;;5114180;27;20106;-67
2023/04/03 00:03:37;;;;;;;2.10;0.65;;;3.30;99.90;;;;;;5114321;27;20478;-64
2023/04/03 00:06:08;;;;;;;2.40;1.05;;;3.20;99.90;;;;;;5114576;27;20117;-66
2023/04/03 00:08:35;;;;;;;1.73;0.98;;;3.20;99.90;;;;;;5096845;27;20051;-66
2023/04/03 00:11:01;;;;;;;3.03;0.90;;;3.20;99.90;;;;;;5128441;27;20045;-65
2023/04/03 00:13:27;;;;;;;1.92;0.80;;;3.20;99.90;;;;;;5117842;27;20748;-66
2023/04/03 00:15:53;;;;;;;3.20;0.80;;;3.20;99.90;;;;;;5134643;27;20066;-65
2023/04/03 00:18:19;;;;;;;1.48;0.80;;;3.10;99.90;;;;;;5131988;27;20074;-65
2023/04/03 00:20:45;;;;;;;2.05;1.00;;;3.10;99.90;;;;;;5113950;27;20031;-66
2023/04/03 00:23:11;;;;;;;3.55;1.10;;;3.10;99.90;;;;;;5110805;27;20042;-65
2023/04/03 00:25:37;;;;;;;1.25;0.80;;;3.10;99.90;;;;;;5096399;27;20047;-67
2023/04/03 00:28:03;;;;;;;1.35;0.65;;;3.10;99.90;;;;;;5113845;27;20043;-65
2023/04/03 00:30:29;;;;;;;2.92;0.73;;;3.00;99.90;;;;;;5111948;27;20046;-65
2023/04/03 00:32:55;;;;;;;2.33;0.80;;;3.10;99.90;;;;;;5095113;27;20039;-66
2023/04/03 00:35:22;;;;;;;1.85;0.98;;;3.10;99.90;;;;;;5114082;27;20054;-65
2023/04/03 00:37:50;;;;;;;1.92;0.85;;;3.00;99.90;;;;;;5113486;27;20054;-66
2023/04/03 00:40:16;;;;;;;2.08;0.82;;;3.00;99.90;;;;;;5096345;27;20382;-66
2023/04/03 00:42:44;;;;;;;1.90;0.90;;;3.00;99.90;;;;;;5130424;27;20047;-65
2023/04/03 00:45:18;;;;;;;4.45;1.58;;;3.00;99.90;;;;;;5096361;27;20054;-64
2023/04/03 00:47:44;;;;;;;2.65;0.80;;;3.00;99.90;;;;;;5113504;27;20039;-67
2023/04/03 00:50:10;;;;;;;2.72;1.10;;;3.00;99.90;;;;;;5112818;27;20482;-64
2023/04/03 00:52:38;;;;;;;2.30;0.90;;;3.00;99.90;;;;;;5112412;27;20027;-64
2023/04/03 00:55:07;;;;;;;2.95;0.88;;;2.90;99.90;;;;;;5146954;27;20378;-67
2023/04/03 00:57:33;;;;;;;2.05;1.05;;;2.90;99.90;;;;;;5113847;27;20027;-65
2023/04/03 01:00:08;;;;;;;2.78;0.93;;;2.90;99.90;;;;;;5113195;27;20038;-67
2023/04/03 01:02:35;;;;;;;2.72;0.98;;;2.90;99.90;;;;;;5097613;27;20142;-64
2023/04/03 01:05:00;;;;;;;3.03;0.80;;;2.80;99.90;;;;;;5113005;27;20386;-67
2023/04/03 01:07:29;;;;;;;2.17;0.98;;;2.80;99.90;;;;;;5113332;27;20041;-65
2023/04/03 01:10:01;;;;;;;2.67;0.90;;;2.80;99.90;;;;;;5113016;27;20038;-66
2023/04/03 01:12:36;;;;;;;4.13;0.95;;;2.80;99.90;;;;;;5113279;27;20042;-67
2023/04/03 01:15:23;;;;;;;3.45;1.00;;;2.80;99.90;;;;;;5131068;27;20035;-67
2023/04/03 01:17:56;;;;;;;2.10;1.05;;;2.80;99.90;;;;;;5115890;27;20041;-67
2023/04/03 01:20:36;;;;;;;2.63;1.08;;;2.80;99.90;;;;;;5131416;27;20035;-65
2023/04/03 01:23:23;;;;;;;3.85;0.95;;;2.80;99.90;;;;;;5133772;27;20050;-65
2023/04/03 01:25:55;;;;;;;2.40;1.10;;;2.70;99.90;;;;;;5095853;27;20050;-65
2023/04/03 01:28:34;;;;;;;3.72;1.20;;;2.70;99.90;;;;;;5112973;27;20042;-66
2023/04/03 01:31:27;;;;;;;3.00;0.80;;;2.70;99.90;;;;;;5112590;27;20039;-67
2023/04/03 01:33:53;;;;;;;3.42;1.15;;;2.70;99.90;;;;;;5140796;27;20047;-66
2023/04/03 01:36:30;;;;;;;3.80;1.00;;;2.60;99.90;;;;;;5128696;27;20042;-66
2023/04/03 01:38:59;;;;;;;2.45;0.90;;;2.60;99.90;;;;;;5133204;27;20066;-65
2023/04/03 01:41:25;;;;;;;4.72;1.10;;;2.60;99.90;;;;;;5112555;27;20046;-65
2023/04/03 01:43:51;;;;;;;4.03;1.00;;;2.50;99.90;;;;;;5113264;27;20027;-67
2023/04/03 01:46:18;;;;;;;3.15;0.90;;;2.50;99.90;;;;;;5107008;28;20052;-65
2023/04/03 01:48:44;;;;;;;3.25;1.20;;;2.50;99.90;;;;;;5109443;28;20486;-66
2023/04/03 01:51:09;;;;;;;2.03;1.02;;;2.50;99.90;;;;;;5109619;28;20047;-65
2023/04/03 01:53:35;;;;;;;1.73;0.90;;;2.40;99.90;;;;;;5091753;28;20155;-64
2023/04/03 01:56:01;;;;;;;2.80;1.00;;;2.40;99.90;;;;;;5108459;28;20435;-65
2023/04/03 01:58:26;;;;;;;3.03;1.23;;;2.40;99.90;;;;;;5109261;28;20192;-66
2023/04/03 02:00:52;;;;;;;3.05;1.10;;;2.40;99.90;;;;;;5104639;28;20547;-65
2023/04/03 02:03:18;;;;;;;2.75;1.30;;;2.40;99.90;;;;;;5108937;28;20066;-67
2023/04/03 02:05:45;;;;;;;3.00;1.20;;;2.40;99.90;;;;;;5124035;27;20039;-65
2023/04/03 02:08:11;;;;;;;2.30;1.10;;;2.30;99.90;;;;;;5109228;28;20032;-65
2023/04/03 02:10:36;;;;;;;2.55;1.20;;;2.30;99.90;;;;;;5109029;28;20035;-66
2023/04/03 02:13:02;;;;;;;3.95;1.23;;;2.30;99.90;;;;;;5109135;28;20569;-65
2023/04/03 02:15:28;;;;;;;5.97;1.10;;;2.30;99.90;;;;;;5105019;28;20047;-67
2023/04/03 02:17:53;;;;;;;3.60;1.30;;;2.30;99.90;;;;;;5107934;28;20126;-64
2023/04/03 02:20:19;;;;;;;4.07;1.25;;;2.20;99.90;;;;;;5108155;28;20031;-66
2023/04/03 02:22:45;;;;;;;3.97;1.40;;;2.20;99.90;;;;;;5108379;28;20032;-65
2023/04/03 02:25:11;;;;;;;2.55;1.20;;;2.20;99.90;;;;;;5107149;28;20081;-66
2023/04/03 02:27:37;;;;;;;4.75;1.45;;;2.20;99.90;;;;;;5109081;28;20034;-66
2023/04/03 02:30:04;;;;;;;2.75;1.45;;;2.10;99.90;;;;;;5091301;28;20043;-66
2023/04/03 02:32:29;;;;;;;5.20;1.15;;;2.10;99.90;;;;;;5108381;28;20110;-65
2023/04/03 02:34:55;;;;;;;4.18;1.55;;;2.10;99.90;;;;;;5109089;28;20134;-67
2023/04/03 02:37:21;;;;;;;5.10;1.30;;;2.10;99.90;;;;;;5108344;28;20051;-65
2023/04/03 02:39:47;;;;;;;2.35;1.13;;;2.10;99.90;;;;;;5091018;28;20410;-66
2023/04/03 02:42:13;;;;;;;4.72;1.42;;;2.00;99.90;;;;;;5125156;28;20517;-67
2023/04/03 02:44:39;;;;;;;5.28;1.38;;;2.00;99.90;;;;;;5116089;27;20129;-64
2023/04/03 02:47:05;;;;;;;2.60;1.20;;;2.00;99.90;;;;;;5094855;27;20127;-65
2023/04/03 02:49:31;;;;;;;3.20;1.33;;;2.00;99.90;;;;;;5112113;27;20113;-66
2023/04/03 02:51:57;;;;;;;2.60;1.20;;;2.00;99.90;;;;;;5110216;27;20566;-66
2023/04/03 02:54:24;;;;;;;4.45;1.33;;;2.00;99.90;;;;;;5112154;27;20047;-64
2023/04/03 02:56:50;;;;;;;5.18;1.42;;;2.00;99.90;;;;;;5111529;27;20046;-68
2023/04/03 02:59:16;;;;;;;3.78;1.50;;;1.90;99.90;;;;;;5123792;27;20034;-64
2023/04/03 03:01:41;;;;;;;4.55;1.25;;;1.90;99.90;;;;;;5112480;27;20187;-66
2023/04/03 03:04:07;;;;;;;3.08;1.55;;;1.90;99.90;;;;;;5111535;27;20497;-63
2023/04/03 03:06:33;;;;;;;3.38;1.52;;;1.90;99.90;;;;;;5111678;27;20470;-64
2023/04/03 03:08:58;;;;;;;3.00;1.30;;;1.90;99.90;;;;;;5111516;27;20037;-65
2023/04/03 03:11:24;;;;;;;3.75;1.10;;;1.90;99.90;;;;;;5119533;27;20038;-66
2023/04/03 03:13:50;;;;;;;4.00;1.30;;;1.90;99.90;;;;;;5114117;27;20046;-66
2023/04/03 03:16:16;;;;;;;2.58;1.25;;;1.80;99.90;;;;;;5115454;27;20039;-65
2023/04/03 03:18:41;;;;;;;6.30;1.70;;;1.80;99.90;;;;;;5117156;27;20043;-65
2023/04/03 03:21:09;;;;;;;3.40;1.75;;;1.80;99.90;;;;;;5115162;27;20124;-67
2023/04/03 03:23:34;;;;;;;4.05;1.38;;;1.70;99.90;;;;;;5115067;27;20122;-68
2023/04/03 03:26:06;;;;;;;3.40;1.42;;;1.70;99.90;;;;;;5115509;27;20117;-66
2023/04/03 03:28:33;;;;;;;4.00;1.45;;;1.70;99.90;;;;;;5115434;27;20043;-65
2023/04/03 03:30:59;;;;;;;5.05;1.45;;;1.70;99.90;;;;;;5115357;27;20538;-64
2023/04/03 03:33:25;;;;;;;3.22;1.40;;;1.70;99.90;;;;;;5115280;27;20461;-66
2023/04/03 03:35:51;;;;;;;3.83;1.40;;;1.70;99.90;;;;;;5115959;27;20058;-66
2023/04/03 03:38:17;;;;;;;4.63;1.77;;;1.60;99.90;;;;;;5114907;27;20042;-67
2023/04/03 03:40:43;;;;;;;2.95;1.40;;;1.60;99.90;;;;;;5115518;27;20039;-66
2023/04/03 03:43:08;;;;;;;3.38;1.40;;;1.60;99.90;;;;;;5114964;27;20126;-67
2023/04/03 03:45:34;;;;;;;2.83;1.38;;;1.50;99.90;;;;;;5114195;27;20126;-68
2023/04/03 03:48:00;;;;;;;4.75;1.58;;;1.40;99.90;;;;;;5126147;27;20055;-65
2023/04/03 03:50:26;;;;;;;3.20;1.75;;;1.40;99.90;;;;;;5134670;27;20069;-65
2023/04/03 03:52:51;;;;;;;3.53;1.40;;;1.30;99.90;;;;;;5115048;27;20063;-64
2023/04/03 03:55:17;;;;;;;2.08;1.20;;;1.30;99.90;;;;;;5116213;27;20126;-65
2023/04/03 03:57:43;;;;;;;2.85;1.38;;;1.30;99.90;;;;;;5131701;27;20455;-68
2023/04/03 04:00:09;;;;;;;3.55;1.30;;;1.20;99.90;;;;;;5132951;27;20035;-66
2023/04/03 04:02:35;;;;;;;5.68;1.50;;;1.20;99.90;;;;;;5113589;27;20486;-65
2023/04/03 04:05:00;;;;;;;4.72;1.65;;;1.20;99.90;;;;;;5110097;27;20031;-63
2023/04/03 04:07:28;;;;;;;5.50;1.70;;;1.20;99.90;;;;;;5148014;27;20118;-66
2023/04/03 04:09:53;;;;;;;4.28;1.20;;;1.10;99.90;;;;;;5117545;27;20439;-66
2023/04/03 04:12:20;;;;;;;2.60;1.40;;;1.10;99.90;;;;;;5112473;27;20038;-64
2023/04/03 04:14:46;;;;;;;3.35;1.58;;;1.00;99.90;;;;;;5153753;27;20478;-65
2023/04/03 04:17:13;;;;;;;3.47;1.50;;;1.00;99.90;;;;;;5114075;27;20043;-66
2023/04/03 04:19:38;;;;;;;4.57;1.40;;;1.00;99.90;;;;;;5123915;27;20042;-64
2023/04/03 04:22:04;;;;;;;3.65;1.55;;;1.00;99.90;;;;;;5134585;27;20061;-65
2023/04/03 04:24:29;;;;;;;6.13;1.45;;;0.90;99.90;;;;;;5121766;27;20083;-67
2023/04/03 04:26:55;;;;;;;5.28;1.30;;;0.90;99.90;;;;;;5112664;27;20047;-65
2023/04/03 04:29:21;;;;;;;5.05;1.42;;;0.90;99.90;;;;;;5114128;27;20122;-66
2023/04/03 04:31:47;;;;;;;5.53;1.60;;;0.90;99.90;;;;;;5106563;27;20039;-67
2023/04/03 04:34:15;;;;;;;6.32;1.50;;;0.90;99.90;;;;;;5134516;27;20039;-66
2023/04/03 04:36:41;;;;;;;3.55;1.38;;;0.80;99.90;;;;;;5117487;27;20057;-65
2023/04/03 04:39:07;;;;;;;3.00;1.52;;;0.80;99.90;;;;;;5112182;27;20375;-66
2023/04/03 04:41:33;;;;;;;4.53;1.70;;;0.90;99.90;;;;;;5114180;27;20031;-66
2023/04/03 04:43:58;;;;;;;7.35;1.58;;;0.90;99.90;;;;;;5113712;27;20034;-66
2023/04/03 04:46:24;;;;;;;5.40;1.48;;;0.90;99.90;;;;;;5113710;27;20051;-66
2023/04/03 04:48:50;;;;;;;3.70;1.50;;;0.80;99.90;;;;;;5095803;27;20053;-65
2023/04/03 04:51:16;;;;;;;5.30;1.50;;;0.80;99.90;;;;;;5113895;27;20039;-66
2023/04/03 04:53:42;;;;;;;4.53;1.40;;;0.80;99.90;;;;;;5113933;27;20043;-65
2023/04/03 04:56:08;;;;;;;5.57;1.58;;;0.80;99.90;;;;;;5113789;27;20079;-69
2023/04/03 04:58:35;;;;;;;4.80;1.52;;;0.80;99.90;;;;;;5113024;27;20055;-67
2023/04/03 05:01:06;;;;;;;4.97;1.70;;;0.70;99.90;;;;;;5113534;27;20095;-65
2023/04/03 05:03:32;;;;;;;6.30;1.80;;;0.70;99.90;;;;;;5113379;27;20054;-66
2023/04/03 05:05:58;;;;;;;4.68;2.08;;;0.70;99.90;;;;;;5113133;27;20038;-63
2023/04/03 05:08:24;;;;;;;3.72;1.88;;;0.80;99.90;;;;;;5121935;27;20039;-65
2023/04/03 05:10:50;;;;;;;4.05;1.50;;;0.70;99.90;;;;;;5166077;27;20493;-65
2023/04/03 05:13:16;;;;;;;5.13;1.80;;;0.70;99.90;;;;;;5134023;27;20135;-64
2023/04/03 05:15:42;;;;;;;5.13;1.95;;;0.70;99.90;;;;;;5115185;27;20118;-67
2023/04/03 05:18:07;;;;;;;4.18;1.70;;;0.70;99.90;;;;;;5094390;27;20051;-67
2023/04/03 05:20:33;;;;;;;5.10;2.40;;;0.70;99.90;;;;;;5095982;27;20096;-65
2023/04/03 05:22:59;;;;;;;5.88;2.28;;;0.70;99.90;;;;;;5108979;27;20118;-66
2023/04/03 05:25:25;;;;;;;6.15;2.05;;;0.70;99.90;;;;;;5110819;27;20047;-65
2023/04/03 05:27:51;;;;;;;4.93;2.38;;;0.80;99.90;;;;;;5108497;27;20115;-65
2023/04/03 05:30:17;;;;;;;5.50;2.53;;;0.80;99.90;;;;;;5110083;27;20488;-66
2023/04/03 05:32:43;;;;;;;5.85;2.15;;;0.80;99.90;;;;;;5110548;27;20050;-64
2023/04/03 05:35:09;;;;;;;5.13;1.88;;;0.90;99.90;;;;;;5112017;27;20030;-65
2023/04/03 05:37:35;;;;;;;6.03;1.98;;;0.90;99.90;;;;;;5106429;27;20028;-67
2023/04/03 05:40:01;;;;;;;5.72;2.33;;;0.90;99.90;;;;;;5115568;27;20042;-66
2023/04/03 05:42:27;;;;;;;4.25;1.98;;;1.00;99.90;;;;;;5108458;27;20039;-67
2023/04/03 05:44:52;;;;;;;5.32;2.20;;;1.00;99.90;;;;;;5144604;27;20591;-66
2023/04/03 05:47:18;;;;;;;7.32;2.03;;;1.00;99.90;;;;;;5106581;27;20108;-67
2023/04/03 05:49:45;;;;;;;3.40;1.52;;;1.10;99.90;;;;;;5113225;27;20019;-66
2023/04/03 05:52:22;;;;;;;9.20;2.10;;;1.10;99.90;;;;;;5111004;27;20489;-67
2023/04/03 05:54:48;;;;;;;4.38;1.67;;;1.20;99.90;;;;;;5110541;27;20464;-66
2023/04/03 05:57:15;;;;;;;5.43;2.00;;;1.20;99.90;;;;;;5104401;27;20059;-67
2023/04/03 05:59:42;;;;;;;5.55;1.80;;;1.20;99.90;;;;;;5123369;27;20468;-67
2023/04/03 06:02:17;;;;;;;5.57;1.90;;;1.30;99.90;;;;;;5106357;27;20035;-66
2023/04/03 06:04:43;;;;;;;7.65;1.80;;;1.30;99.90;;;;;;5110382;27;20092;-65
2023/04/03 06:07:17;;;;;;;5.35;1.60;;;1.40;99.90;;;;;;5114341;27;20047;-70
2023/04/03 06:09:43;;;;;;;5.18;2.00;;;1.40;99.90;;;;;;5112352;28;20035;-64
2023/04/03 06:12:09;;;;;;;5.25;1.73;;;1.50;99.90;;;;;;5112443;27;20122;-65
2023/04/03 06:14:35;;;;;;;5.63;2.53;;;1.60;99.90;;;;;;5130389;27;20050;-67
2023/04/03 06:17:01;;;;;;;6.80;1.90;;;1.60;99.90;;;;;;5113131;27;20031;-66
2023/04/03 06:19:27;;;;;;;6.72;2.13;;;1.70;99.90;;;;;;5111702;27;20126;-66
2023/04/03 06:21:53;;;;;;;6.03;1.80;;;1.80;99.90;;;;;;5109351;27;20035;-66
2023/04/03 06:24:21;;;;;;;3.33;1.58;;;1.90;99.90;;;;;;5111216;27;20039;-66
2023/04/03 06:26:48;;;;;;;4.18;1.88;;;2.00;99.90;;;;;;5109795;27;20055;-64
2023/04/03 06:29:14;;;;;;;4.13;1.58;;;2.10;99.90;;;;;;5156312;27;20087;-65
2023/04/03 06:31:40;;;;;;;4.05;1.45;;;2.20;99.90;;;;;;5113608;27;20047;-66
2023/04/03 06:34:07;;;;;;;7.25;2.30;;;2.30;99.90;;;;;;5111588;27;20031;-70
2023/04/03 06:36:32;;;;;;;4.18;1.80;;;2.40;99.90;;;;;;5111791;27;20047;-67
2023/04/03 06:38:58;;;;;;;5.45;1.70;;;2.50;99.90;;;;;;5112129;27;20487;-66
2023/04/03 06:41:26;;;;;;;4.82;1.58;;;2.60;99.90;;;;;;5111479;27;20035;-66
2023/04/03 06:43:51;;;;;;;5.50;1.70;;;2.70;99.90;;;;;;5096403;27;20446;-66
2023/04/03 06:46:19;;;;;;;5.25;1.77;;;2.80;99.90;;;;;;5111548;27;20047;-66
2023/04/03 06:48:45;;;;;;;3.97;1.58;;;2.90;99.90;;;;;;5097699;27;20050;-65
2023/04/03 06:51:26;;;;;;;4.25;1.50;;;2.90;99.90;;;;;;5129755;27;20034;-65
2023/04/03 06:53:54;;;;;;;4.55;1.58;;;3.00;99.90;;;;;;5136313;27;20055;-66
2023/04/03 06:56:20;;;;;;;5.45;1.88;;;3.10;99.90;;;;;;5152355;27;20362;-66
2023/04/03 06:58:46;;;;;;;4.70;1.45;;;3.20;99.90;;;;;;5146701;27;20043;-66
2023/04/03 07:01:14;;;;;;;4.15;1.98;;;3.30;99.90;;;;;;5115848;27;20494;-65
2023/04/03 07:03:40;;;;;;;6.80;1.77;;;3.40;99.90;;;;;;5115857;27;20035;-67
2023/04/03 07:06:07;;;;;;;5.43;1.60;;;3.60;99.90;;;;;;5116062;27;20035;-64
2023/04/03 07:08:33;;;;;;;3.80;1.42;;;3.60;99.90;;;;;;5114378;27;20035;-65
2023/04/03 07:10:59;;;;;;;6.22;1.58;;;3.80;99.90;;;;;;5114551;27;20062;-67
2023/04/03 07:13:25;;;;;;;4.35;1.42;;;3.90;99.90;;;;;;5115738;27;20077;-66
2023/04/03 07:15:51;;;;;;;4.70;1.70;;;4.00;99.90;;;;;;5115883;27;20572;-65
2023/04/03 07:18:17;;;;;;;6.65;1.45;;;4.00;99.90;;;;;;5115707;27;20043;-67
2023/04/03 07:20:43;;;;;;;7.80;1.73;;;4.10;99.90;;;;;;5115396;27;20053;-66
2023/04/03 07:23:09;;;;;;;3.92;1.52;;;4.20;99.90;;;;;;5115388;27;20092;-65
2023/04/03 07:25:34;;;;;;;6.35;1.30;;;4.40;99.90;;;;;;5115523;27;20467;-64
2023/04/03 07:28:00;;;;;;;5.05;1.20;;;4.50;99.90;;;;;;5098209;27;20035;-67
2023/04/03 07:30:26;;;;;;;6.45;1.40;;;4.50;99.90;;;;;;5114932;27;20039;-65
2023/04/03 07:32:52;;;;;;;4.75;1.23;;;4.70;99.90;;;;;;5098174;27;20050;-66
2023/04/03 07:35:17;;;;;;;2.50;1.20;;;4.80;99.90;;;;;;5115653;27;20082;-68
2023/04/03 07:37:43;;;;;;;5.05;1.27;;;4.90;99.90;;;;;;5115118;27;20035;-66
2023/04/03 07:40:11;;;;;;;5.93;1.48;;;5.10;99.90;;;;;;5114811;27;20062;-67
2023/04/03 07:42:37;;;;;;;4.28;1.38;;;5.10;99.90;;;;;;5115171;27;20047;-67
2023/04/03 07:45:06;;;;;;;5.40;1.45;;;5.20;99.90;;;;;;5114899;27;20043;-67
2023/04/03 07:47:32;;;;;;;3.50;1.33;;;5.20;99.90;;;;;;5095233;27;20074;-66
2023/04/03 07:49:57;;;;;;;3.03;1.10;;;5.30;99.90;;;;;;5112973;27;20118;-65
2023/04/03 07:52:24;;;;;;;4.70;1.10;;;5.50;99.90;;;;;;5097333;27;20142;-67
2023/04/03 07:54:50;;;;;;;3.63;1.13;;;5.60;99.90;;;;;;5097482;27;20038;-66
2023/04/03 07:57:16;;;;;;;2.85;1.02;;;5.60;99.90;;;;;;5114596;27;20482;-67
2023/04/03 07:59:42;;;;;;;5.25;1.13;;;5.70;99.90;;;;;;5113097;27;20527;-66
2023/04/03 08:02:12;;;;;;;5.03;1.30;;;5.80;99.90;;;;;;5113247;27;20055;-66
2023/04/03 08:04:37;;;;;;;6.32;1.42;;;5.90;99.90;;;;;;5114675;27;20492;-67
2023/04/03 08:07:03;;;;;;;3.88;0.98;;;6.00;99.90;;;;;;5114151;27;20085;-65
2023/04/03 08:09:29;;;;;;;4.40;1.10;;;6.10;99.90;;;;;;5113830;27;20126;-66
2023/04/03 08:11:55;;;;;;;3.03;1.10;;;6.20;99.90;;;;;;5112788;27;20495;-67
2023/04/03 08:14:21;;;;;;;2.20;0.90;;;6.30;99.90;;;;;;5114460;27;20047;-66
2023/04/03 08:16:48;;;;;;;3.67;1.25;;;6.40;99.90;;;;;;5114203;27;20479;-66
2023/04/03 08:19:15;;;;;;;1.80;1.05;;;6.50;99.90;;;;;;5096748;27;20039;-67
2023/04/03 08:21:41;;;;;;;6.70;1.30;;;6.60;99.90;;;;;;5113983;27;20452;-65
2023/04/03 08:24:08;;;;;;;4.25;0.80;;;6.70;99.90;;;;;;5114518;27;20043;-64
2023/04/03 08:26:34;;;;;;;2.65;1.13;;;6.80;99.90;;;;;;5114549;27;20319;-65
2023/04/03 08:29:00;;;;;;;3.50;1.00;;;6.80;99.90;;;;;;5114416;27;20445;-66
2023/04/03 08:31:26;;;;;;;2.72;0.80;;;6.90;99.90;;;;;;5113799;27;20089;-67
2023/04/03 08:33:52;;;;;;;2.45;0.93;;;6.90;99.90;;;;;;5114159;27;20504;-67
2023/04/03 08:36:25;;;;;;;3.80;0.80;;;7.00;99.90;;;;;;5114096;27;20047;-64
2023/04/03 08:38:52;;;;;;;1.50;0.82;;;7.10;99.90;;;;;;5114608;27;20042;-67
2023/04/03 08:41:30;;;;;;;3.42;1.10;;;7.20;99.20;;;;;;5114182;27;20431;-65
2023/04/03 08:44:02;;;;;;;3.47;1.15;;;7.30;99.00;;;;;;5114087;27;20371;-66
2023/04/03 08:46:52;;;;;;;2.28;0.80;;;7.40;98.20;;;;;;5113631;27;20051;-66
2023/04/03 08:49:31;;;;;;;2.75;1.00;;;7.60;98.10;;;;;;5113977;27;20122;-69
2023/04/03 08:51:59;;;;;;;1.77;0.68;;;7.70;97.70;;;;;;5114226;27;20042;-66
2023/04/03 08:54:35;;;;;;;3.45;1.33;;;7.70;96.80;;;;;;5113556;27;20232;-65
2023/04/03 08:57:03;;;;;;;3.42;0.98;;;7.80;97.00;;;;;;5113661;27;20039;-67
2023/04/03 08:59:37;;;;;;;2.65;0.80;;;8.00;96.90;;;;;;5096988;27;20090;-66
2023/04/03 09:02:16;;;;;;;4.18;1.10;;;8.10;96.70;;;;;;5113581;27;20110;-66
2023/04/03 09:04:42;;;;;;;3.33;0.80;;;8.40;96.80;;;;;;5113183;27;20091;-66
2023/04/03 09:07:18;;;;;;;3.08;0.90;;;8.60;96.70;;;;;;5113616;27;20027;-65
2023/04/03 09:09:45;;;;;;;3.17;0.93;;;8.80;96.10;;;;;;5113425;27;20062;-66
2023/04/03 09:12:33;;;;;;;3.72;0.98;;;8.90;95.80;;;;;;5113191;27;20046;-69
2023/04/03 09:15:20;;;;;;;1.67;0.80;;;9.10;95.50;;;;;;5113387;27;20443;-68
2023/04/03 09:17:54;;;;;;;1.60;0.80;;;9.20;93.90;;;;;;5145856;27;20070;-67
2023/04/03 09:20:39;;;;;;;3.22;0.65;;;9.30;92.80;;;;;;5113276;27;20074;-66
2023/04/03 09:23:22;;;;;;;2.35;0.73;;;9.30;91.60;;;;;;5113299;27;20043;-67
2023/04/03 09:25:48;;;;;;;2.47;0.80;;;9.40;92.20;;;;;;5112829;27;20050;-66
2023/04/03 09:28:14;;;;;;;2.38;0.90;;;9.50;92.20;;;;;;5131466;27;20043;-66
2023/04/03 09:30:41;;;;;;;2.10;0.68;;;9.50;91.50;;;;;;5113045;27;20389;-66
2023/04/03 09:33:06;;;;;;;1.92;0.70;;;9.50;90.30;;;;;;5113109;27;20122;-66
2023/04/03 09:35:35;;;;;;;2.47;0.70;;;9.70;90.90;;;;;;5112900;27;20220;-66
2023/04/03 09:38:10;;;;;;;3.25;0.77;;;9.80;90.40;;;;;;5112831;27;20506;-66
2023/04/03 09:40:39;;;;;;;2.83;1.10;;;9.80;86.40;;;;;;5108786;27;20043;-65
2023/04/03 09:43:16;;;;;;;2.17;0.80;;;9.80;81.90;;;;;;5112485;27;20039;-65
2023/04/03 09:45:44;;;;;;;2.03;0.50;;;9.80;83.30;;;;;;5112376;27;20055;-68
2023/04/03 09:48:13;;;;;;;1.35;0.50;;;9.80;84.50;;;;;;5111450;27;20031;-68
2023/04/03 09:50:58;;;;;;;2.35;0.50;;;10.00;83.20;;;;;;5112379;27;20096;-66
2023/04/03 09:53:36;;;;;;;1.98;0.63;;;10.00;79.50;;;;;;5112408;27;20151;-67
2023/04/03 09:56:25;;;;;;;3.25;1.00;;;10.20;81.80;;;;;;5112635;27;20043;-66
2023/04/03 09:58:51;;;;;;;1.13;0.60;;;10.40;81.50;;;;;;5111074;27;20043;-67
2023/04/03 10:01:29;;;;;;;1.50;0.50;;;10.60;80.10;;;;;;5112798;27;20065;-66
2023/04/03 10:04:15;;;;;;;0.85;0.50;;;10.70;78.60;;;;;;5112518;27;20470;-69
2023/04/03 10:06:46;;;;;;;3.83;0.70;;;10.90;74.90;;;;;;5112183;27;20035;-66
2023/04/03 10:09:32;;;;;;;2.88;0.55;;;11.00;77.30;;;;;;5110179;27;20039;-68
2023/04/03 10:12:04;;;;;;;1.02;0.50;;;11.30;77.10;;;;;;5111855;27;20043;-65
2023/04/03 10:14:32;;;;;;;2.13;0.50;;;11.40;76.30;;;;;;5112916;27;20051;-68
2023/04/03 10:17:26;;;;;;;1.42;0.60;;;11.50;77.60;;;;;;5112760;27;20520;-67
2023/04/03 10:19:56;;;;;;;1.05;0.43;;;11.60;74.80;;;;;;5112122;27;20057;-67
2023/04/03 10:22:45;;;;;;;2.67;0.60;;;11.80;76.70;;;;;;5112988;27;20159;-67
2023/04/03 10:25:20;;;;;;;1.27;0.60;;;12.00;75.10;;;;;;5116917;27;20105;-67
2023/04/03 10:28:01;;;;;;;1.95;0.60;;;11.90;71.80;;;;;;5117696;27;20407;-68
2023/04/03 10:30:51;;;;;;;3.53;0.70;;;11.90;69.50;;;;;;5116339;27;20038;-65
2023/04/03 10:33:33;;;;;;;2.65;0.63;;;12.00;70.80;;;;;;5115038;27;20035;-67
2023/04/03 10:36:17;;;;;;;1.33;0.70;;;11.90;68.40;;;;;;5114856;27;20411;-66
2023/04/03 10:39:10;;;;;;;0.88;0.50;;;12.10;71.30;;;;;;5116021;27;20031;-67
2023/04/03 10:41:46;;;;;;;;;;;12.30;69.60;;;;;;5117198;27;20092;-67
2023/04/03 10:44:54;;;;;;;1.00;0.60;;;12.50;69.80;;;;;;5116336;27;19919;-67
2023/04/03 10:47:35;;;;;;;3.08;0.90;;;12.80;68.20;;;;;;4998122;28;20042;-66
2023/04/03 10:50:34;;;;;;;1.95;0.68;;;13.10;69.60;;;;;;4997203;28;20050;-67
2023/04/03 10:53:21;;;;;;;1.13;0.50;;;13.40;69.00;;;;;;5015266;28;20080;-69
2023/04/03 10:55:59;;;;;;;1.55;0.70;;;13.70;72.20;;;;;;5015200;28;20041;-66
2023/04/03 10:58:36;;;;;;;1.45;0.50;;;13.70;67.50;;;;;;5031924;28;20058;-67
2023/04/03 11:01:27;;;;;;;3.17;0.90;;;13.70;66.20;;;;;;5014599;28;20194;-67
2023/04/03 11:03:58;;;;;;;2.92;0.60;;;13.80;66.90;;;;;;5014189;28;20124;-67
2023/04/03 11:06:31;;;;;;;1.95;0.70;;;13.90;67.30;;;;;;4998846;28;20061;-67
2023/04/03 11:09:03;;;;;;;2.00;0.60;;;13.90;64.80;;;;;;5014277;28;20037;-65
2023/04/03 11:11:36;;;;;;;3.10;0.57;;;14.00;65.30;;;;;;5014781;28;20107;-66
2023/04/03 11:14:31;;;;;;;1.58;0.60;;;14.20;65.90;;;;;;5001976;28;20071;-68
2023/04/03 11:17:16;;;;;;;1.95;0.95;;;14.40;64.90;;;;;;5013508;28;20497;-66
2023/04/03 11:20:27;;;;;;;3.33;0.85;;;14.40;63.00;;;;;;5013542;28;20052;-66
2023/04/03 11:23:21;;;;;;;1.75;0.70;;;14.50;64.00;;;;;;5015501;27;20045;-67
2023/04/03 11:25:51;;;;;;;1.63;0.70;;;14.40;62.50;;;;;;5115542;27;20110;-65
2023/04/03 11:28:16;;;;;;;1.52;0.80;;;14.10;61.20;;;;;;5115023;27;20383;-68
2023/04/03 11:31:00;;;;;;;1.98;0.60;;;14.20;61.80;;;;;;5129996;27;20043;-65
2023/04/03 11:33:44;;;;;;;2.58;0.65;;;14.20;60.70;;;;;;5115192;27;20042;-68
2023/04/03 11:36:21;;;;;;;1.63;1.08;;;14.30;62.40;;;;;;5115123;27;20402;-68
2023/04/03 11:38:51;;;;;;;1.33;0.60;;;14.60;62.20;;;;;;5125695;27;20039;-67
2023/04/03 11:41:24;;;;;;;3.80;0.80;;;14.50;58.90;;;;;;5123177;27;20047;-67
2023/04/03 11:43:59;;;;;;;3.00;0.70;;;14.30;58.50;;;;;;5118808;27;20038;-68
2023/04/03 11:46:55;;;;;;;1.20;0.55;;;14.30;59.60;;;;;;5123809;27;20044;-69
2023/04/03 11:49:53;;;;;;;1.30;0.80;;;14.50;61.10;;;;;;5123073;27;20493;-66
2023/04/03 11:52:38;;;;;;;0.93;0.70;;;14.80;61.40;;;;;;5118645;27;20052;-66
2023/04/03 11:55:26;;;;;;;1.45;0.70;;;15.00;60.40;;;;;;5109291;28;20170;-68
2023/04/03 11:57:57;;;;;;;3.38;0.90;;;15.10;60.40;;;;;;5109645;28;20043;-68
2023/04/03 12:00:51;;;;;;;2.58;0.75;;;15.10;60.20;;;;;;5110932;28;20035;-67
2023/04/03 12:03:24;;;;;;;3.78;0.90;;;15.30;60.00;;;;;;5109848;28;20070;-66
2023/04/03 12:05:54;;;;;;;2.35;0.75;;;15.30;58.90;;;;;;5111330;28;20058;-68
2023/04/03 12:08:30;;;;;;;2.53;0.70;;;15.30;59.40;;;;;;5111431;27;20036;-65
2023/04/03 12:11:14;;;;;;;2.03;0.70;;;15.30;57.50;;;;;;5111535;28;20490;-66
2023/04/03 12:13:53;;;;;;;1.15;0.70;;;15.00;55.50;;;;;;5111226;28;20466;-67
2023/04/03 12:16:22;;;;;;;1.38;0.70;;;14.80;58.00;;;;;;5110102;28;20036;-66
2023/04/03 12:18:56;;;;;;;2.30;0.70;;;14.80;58.70;;;;;;5110909;28;20066;-66
2023/04/03 12:21:23;;;;;;;1.73;0.80;;;14.80;58.40;;;;;;5111089;28;20054;-67
2023/04/03 12:24:07;;;;;;;4.18;0.77;;;14.80;58.90;;;;;;5094397;28;20028;-66
2023/04/03 12:26:55;;;;;;;2.10;0.90;;;14.60;57.30;;;;;;5110512;28;20067;-67
2023/04/03 12:29:29;;;;;;;2.42;0.80;;;14.30;56.20;;;;;;5110838;28;20112;-66
2023/04/03 12:32:07;;;;;;;1.60;0.73;;;14.00;57.10;;;;;;5111312;28;20500;-66
2023/04/03 12:34:57;;;;;;;1.67;0.85;;;13.90;58.60;;;;;;5110971;28;20049;-66
2023/04/03 12:37:58;;;;;;;2.20;0.95;;;14.10;58.20;;;;;;5093640;28;20043;-65
2023/04/03 12:40:31;;;;;;;2.45;1.00;;;14.10;57.40;;;;;;5110611;28;20130;-68
2023/04/03 12:43:35;;;;;;;1.33;0.80;;;14.10;57.70;;;;;;5110349;28;20048;-66
2023/04/03 12:46:11;;;;;;;2.35;0.90;;;14.10;57.00;;;;;;5109410;28;20047;-64
2023/04/03 12:48:53;;;;;;;2.42;1.00;;;14.20;57.90;;;;;;5110517;28;20044;-66
2023/04/03 12:51:27;;;;;;;1.70;0.70;;;14.20;57.40;;;;;;5110780;27;20122;-65
2023/04/03 12:54:01;;;;;;;2.35;1.20;;;14.30;57.70;;;;;;5110344;27;20289;-67
2023/04/03 12:56:29;;;;;;;0.93;0.70;;;14.30;58.50;;;;;;5110145;28;20039;-67
2023/04/03 12:59:14;;;;;;;2.83;1.02;;;14.40;58.50;;;;;;5111141;28;20676;-65
2023/04/03 13:01:40;;;;;;;1.88;0.90;;;14.40;58.20;;;;;;5110485;28;20371;-64
2023/04/03 13:04:06;;;;;;;2.40;0.93;;;14.60;58.60;;;;;;5110468;28;20043;-66
2023/04/03 13:06:42;;;;;;;3.55;0.70;;;14.60;58.70;;;;;;5110355;28;20036;-69
2023/04/03 13:09:21;;;;;;;1.70;0.80;;;14.70;59.00;;;;;;5110049;28;20088;-65
2023/04/03 13:11:48;;;;;;;3.13;0.93;;;14.70;58.80;;;;;;5110194;28;20102;-66
2023/04/03 13:14:18;;;;;;;1.95;0.85;;;14.70;59.70;;;;;;5110107;28;20041;-65